Time;durP1;ratioP1;P1;durP2;ratioP2;P2;SDS_P1;SDS_P2;PMS_P1;PMS_P2;Temp;Humidity;BMP_temperature;BMP_pressure;BME280_temperature;BME280_humidity;BME280_pressure;Samples;Min_cycle;Max_cycle;Signal;HPM_P1;HPM_P2
2021/05/14 00:02:01;;;;;;;22.73;18.12;;;12.70;99.90;;;;;;1880251;74;21207;-74
2021/05/14 00:04:28;;;;;;;19.45;16.35;;;12.70;99.90;;;;;;1879297;74;21243;-74
2021/05/14 00:06:56;;;;;;;21.70;16.70;;;12.70;99.90;;;;;;1883479;74;21089;-74
2021/05/14 00:09:23;;;;;;;24.80;17.30;;;12.60;99.90;;;;;;1884476;74;21101;-74
2021/05/14 00:11:51;;;;;;;21.62;17.45;;;12.50;99.90;;;;;;1882766;74;21203;-74
2021/05/14 00:14:18;;;;;;;24.80;16.85;;;12.50;99.90;;;;;;1875575;74;22163;-74
2021/05/14 00:16:46;;;;;;;20.72;17.30;;;12.60;99.90;;;;;;1878457;74;21094;-74
2021/05/14 00:19:13;;;;;;;20.40;16.50;;;12.50;99.90;;;;;;1885260;74;21163;-75
2021/05/14 00:21:41;;;;;;;25.25;17.92;;;12.50;99.90;;;;;;1884983;74;21617;-75
2021/05/14 00:24:09;;;;;;;22.15;17.62;;;12.50;99.90;;;;;;1884471;74;21090;-74
2021/05/14 00:26:36;;;;;;;19.27;16.35;;;12.50;99.90;;;;;;1879902;74;21090;-75
2021/05/14 00:29:04;;;;;;;22.73;17.35;;;12.30;99.90;;;;;;1886397;74;21105;-75
2021/05/14 00:31:31;;;;;;;22.25;18.30;;;12.30;99.90;;;;;;1880067;74;21132;-75
2021/05/14 00:33:59;;;;;;;24.65;18.17;;;12.30;99.90;;;;;;1884660;73;21187;-74
2021/05/14 00:36:26;;;;;;;22.67;19.15;;;12.40;99.90;;;;;;1886237;74;21108;-75
2021/05/14 00:38:54;;;;;;;24.12;18.40;;;12.40;99.90;;;;;;1882943;74;21488;-74
2021/05/14 00:41:21;;;;;;;24.55;19.98;;;12.40;99.90;;;;;;1885028;74;21231;-74
2021/05/14 00:43:49;;;;;;;24.90;20.52;;;12.40;99.90;;;;;;1883744;74;21105;-74
2021/05/14 00:46:16;;;;;;;26.10;20.45;;;12.40;99.90;;;;;;1887664;74;21179;-73
2021/05/14 00:48:44;;;;;;;27.40;20.72;;;12.40;99.90;;;;;;1881970;74;21156;-74
2021/05/14 00:51:12;;;;;;;27.85;20.95;;;12.30;99.90;;;;;;1886999;73;21141;-74
2021/05/14 00:53:39;;;;;;;23.27;18.45;;;12.30;99.90;;;;;;1882807;74;21093;-74
2021/05/14 00:56:08;;;;;;;23.52;18.73;;;12.30;99.90;;;;;;1881586;74;21589;-73
2021/05/14 00:58:36;;;;;;;24.32;19.42;;;12.30;99.90;;;;;;1889991;74;21086;-74
2021/05/14 01:01:03;;;;;;;23.67;18.42;;;12.30;99.90;;;;;;1880640;74;21573;-73
2021/05/14 01:03:31;;;;;;;21.00;17.87;;;12.40;99.90;;;;;;1881364;74;21532;-73
2021/05/14 01:05:58;;;;;;;23.73;18.10;;;12.40;99.90;;;;;;1884063;74;21050;-74
2021/05/14 01:08:26;;;;;;;22.87;17.98;;;12.50;99.90;;;;;;1882640;74;21070;-74
2021/05/14 01:10:54;;;;;;;22.55;17.57;;;12.50;99.90;;;;;;1884512;74;21172;-74
2021/05/14 01:13:25;;;;;;;23.40;18.15;;;12.40;99.90;;;;;;1885705;74;21097;-74
2021/05/14 01:15:53;;;;;;;21.73;17.50;;;12.30;99.90;;;;;;1876199;74;21167;-74
2021/05/14 01:18:20;;;;;;;27.00;17.55;;;12.10;99.90;;;;;;1883521;74;21089;-74
2021/05/14 01:20:48;;;;;;;24.02;18.42;;;12.00;99.90;;;;;;1881385;74;21144;-74
2021/05/14 01:23:16;;;;;;;26.62;18.77;;;12.00;99.90;;;;;;1878870;74;21097;-74
2021/05/14 01:25:43;;;;;;;27.98;18.92;;;12.10;99.90;;;;;;1880252;74;21132;-73
2021/05/14 01:28:11;;;;;;;25.57;19.17;;;12.20;99.90;;;;;;1878961;74;21049;-74
2021/05/14 01:30:39;;;;;;;23.95;18.07;;;12.10;99.90;;;;;;1880068;74;21207;-74
2021/05/14 01:33:06;;;;;;;23.87;17.52;;;12.10;99.90;;;;;;1884055;74;21076;-74
2021/05/14 01:35:34;;;;;;;24.55;17.52;;;12.10;99.90;;;;;;1880282;74;21574;-74
2021/05/14 01:38:01;;;;;;;23.47;16.40;;;12.10;99.90;;;;;;1887113;74;21034;-74
2021/05/14 01:40:29;;;;;;;21.97;15.78;;;12.10;99.90;;;;;;1875887;74;21595;-74
2021/05/14 01:42:56;;;;;;;20.05;15.03;;;12.20;99.90;;;;;;1876341;74;21553;-74
2021/05/14 01:45:24;;;;;;;19.48;13.80;;;12.20;99.90;;;;;;1881614;74;21084;-74
2021/05/14 01:47:51;;;;;;;17.67;13.55;;;12.20;99.90;;;;;;1883101;74;21030;-74
2021/05/14 01:50:19;;;;;;;19.32;13.55;;;12.20;99.90;;;;;;1882893;74;21133;-74
2021/05/14 01:52:47;;;;;;;17.55;13.55;;;12.20;99.90;;;;;;1875024;74;21076;-74
2021/05/14 01:55:15;;;;;;;18.90;13.43;;;12.20;99.90;;;;;;1877194;74;21117;-73
2021/05/14 01:57:42;;;;;;;16.60;13.25;;;12.20;99.90;;;;;;1871121;74;21143;-73
2021/05/14 02:00:11;;;;;;;18.52;13.03;;;12.10;99.90;;;;;;1880898;74;21184;-74
2021/05/14 02:02:39;;;;;;;21.17;14.65;;;12.10;99.90;;;;;;1888128;74;21082;-74
2021/05/14 02:05:07;;;;;;;18.67;13.45;;;12.10;99.90;;;;;;1880008;74;21054;-73
2021/05/14 02:07:34;;;;;;;18.20;13.32;;;12.10;99.90;;;;;;1886405;74;21183;-73
2021/05/14 02:10:03;;;;;;;20.95;13.43;;;12.00;99.90;;;;;;1883763;74;21661;-73
2021/05/14 02:12:30;;;;;;;17.48;13.20;;;11.90;99.90;;;;;;1882812;74;21069;-74
2021/05/14 02:14:58;;;;;;;16.73;12.80;;;12.00;99.90;;;;;;1880089;74;21074;-73
2021/05/14 02:17:25;;;;;;;18.07;12.47;;;12.00;99.90;;;;;;1887883;74;21106;-74
2021/05/14 02:19:54;;;;;;;19.77;13.20;;;12.00;99.90;;;;;;1884287;74;21151;-73
2021/05/14 02:22:21;;;;;;;22.17;13.38;;;11.90;99.90;;;;;;1882954;74;21153;-74
2021/05/14 02:24:53;;;;;;;22.48;12.82;;;11.90;99.90;;;;;;1883644;74;21112;-74
2021/05/14 02:27:21;;;;;;;21.73;13.83;;;11.90;99.90;;;;;;1877371;74;21206;-74
2021/05/14 02:29:49;;;;;;;22.00;13.13;;;12.00;99.90;;;;;;1881538;74;21571;-73
2021/05/14 02:32:16;;;;;;;17.92;11.28;;;11.90;99.90;;;;;;1879529;74;22173;-73
2021/05/14 02:34:44;;;;;;;23.65;12.15;;;11.90;99.90;;;;;;1882744;74;21515;-73
2021/05/14 02:37:12;;;;;;;17.98;11.80;;;11.90;99.90;;;;;;1878504;74;21078;-74
2021/05/14 02:39:39;;;;;;;20.08;13.05;;;11.80;99.90;;;;;;1882228;74;21077;-73
2021/05/14 02:42:08;;;;;;;24.85;13.45;;;12.00;99.90;;;;;;1880847;74;21133;-73
2021/05/14 02:44:37;;;;;;;22.17;13.03;;;12.10;99.90;;;;;;1882077;74;21587;-74
2021/05/14 02:47:05;;;;;;;21.95;13.60;;;12.00;99.90;;;;;;1887244;74;21488;-73
2021/05/14 02:49:32;;;;;;;21.15;12.88;;;11.90;99.90;;;;;;1885972;74;21093;-73
2021/05/14 02:52:00;;;;;;;21.35;13.45;;;12.00;99.90;;;;;;1881399;74;21362;-74
2021/05/14 02:54:27;;;;;;;24.30;13.40;;;11.90;99.90;;;;;;1881031;74;21113;-74
2021/05/14 02:56:55;;;;;;;22.87;14.90;;;12.00;99.90;;;;;;1881752;74;21096;-74
2021/05/14 02:59:22;;;;;;;21.20;14.23;;;12.00;99.90;;;;;;1880381;74;21156;-74
2021/05/14 03:01:50;;;;;;;23.90;13.40;;;12.10;99.90;;;;;;1876874;74;21759;-74
2021/05/14 03:04:18;;;;;;;21.73;13.53;;;12.00;99.90;;;;;;1881755;74;21089;-74
2021/05/14 03:06:46;;;;;;;22.82;13.05;;;11.90;99.90;;;;;;1880969;74;21218;-75
2021/05/14 03:09:14;;;;;;;20.90;13.13;;;12.00;99.90;;;;;;1884384;74;21049;-75
2021/05/14 03:11:41;;;;;;;21.07;12.53;;;12.10;99.90;;;;;;1885350;74;21203;-75
2021/05/14 03:14:09;;;;;;;20.12;12.20;;;12.00;99.90;;;;;;1889840;74;21159;-75
2021/05/14 03:16:37;;;;;;;21.07;12.50;;;11.90;99.90;;;;;;1882983;74;21092;-75
2021/05/14 03:19:05;;;;;;;17.40;11.15;;;11.80;99.90;;;;;;1879349;74;21034;-75
2021/05/14 03:21:33;;;;;;;15.28;10.63;;;11.80;99.90;;;;;;1881034;74;21055;-75
2021/05/14 03:24:00;;;;;;;17.52;10.32;;;11.80;99.90;;;;;;1880703;74;21047;-74
2021/05/14 03:26:28;;;;;;;21.02;11.25;;;11.90;99.90;;;;;;1887396;74;21571;-74
2021/05/14 03:28:55;;;;;;;18.40;10.82;;;11.90;99.90;;;;;;1878808;74;21073;-74
2021/05/14 03:31:23;;;;;;;18.80;10.35;;;11.70;99.90;;;;;;1885106;74;21143;-74
2021/05/14 03:33:53;;;;;;;17.87;9.85;;;11.80;99.90;;;;;;1894221;74;21010;-74
2021/05/14 03:36:21;;;;;;;18.25;9.55;;;11.90;99.90;;;;;;1885247;74;21120;-73
2021/05/14 03:38:50;;;;;;;17.40;8.93;;;11.90;99.90;;;;;;1882887;74;21058;-73
2021/05/14 03:42:06;;;;;;;17.42;8.95;;;11.80;99.90;;;;;;1883792;74;21145;-73
2021/05/14 03:43:48;;;;;;;16.27;9.13;;;11.90;99.90;;;;;;1869991;74;21065;-73
2021/05/14 03:46:15;;;;;;;13.22;8.20;;;11.90;99.90;;;;;;1881891;74;21007;-73
2021/05/14 03:48:43;;;;;;;15.20;8.08;;;11.90;99.90;;;;;;1879769;74;21046;-73
2021/05/14 03:51:10;;;;;;;17.98;7.83;;;11.90;99.90;;;;;;1879969;74;21117;-73
2021/05/14 03:53:38;;;;;;;14.25;6.95;;;11.80;99.90;;;;;;1884667;74;21159;-73
2021/05/14 03:56:05;;;;;;;14.33;6.47;;;11.90;99.90;;;;;;1883531;74;21539;-72
2021/05/14 03:58:33;;;;;;;14.63;6.22;;;11.90;99.90;;;;;;1879764;74;21034;-72
2021/05/14 04:01:00;;;;;;;16.15;6.10;;;11.70;99.90;;;;;;1878116;74;22170;-73
2021/05/14 04:03:28;;;;;;;13.40;6.15;;;11.70;99.90;;;;;;1881766;74;21062;-72
2021/05/14 04:05:55;;;;;;;18.60;6.28;;;11.80;99.90;;;;;;1879324;74;21179;-72
2021/05/14 04:08:24;;;;;;;11.75;6.03;;;11.80;99.90;;;;;;1884275;74;21148;-73
2021/05/14 04:11:21;;;;;;;20.25;6.28;;;11.90;99.90;;;;;;1875992;74;21129;-73
2021/05/14 04:16:18;;;;;;;14.23;6.12;;;11.70;99.90;;;;;;1877400;74;21121;-72
2021/05/14 04:18:46;;;;;;;15.83;6.58;;;11.70;99.90;;;;;;1885406;74;21182;-72
2021/05/14 04:21:14;;;;;;;16.00;5.83;;;11.70;99.90;;;;;;1876895;74;21684;-73
2021/05/14 04:23:41;;;;;;;19.02;5.92;;;11.60;99.90;;;;;;1882188;74;21579;-73
2021/05/14 04:26:09;;;;;;;14.58;6.08;;;11.60;99.90;;;;;;1880584;74;21696;-72
2021/05/14 04:28:36;;;;;;;14.95;5.85;;;11.60;99.90;;;;;;1878564;74;21097;-73
2021/05/14 04:31:04;;;;;;;18.80;6.25;;;11.60;99.90;;;;;;1886152;74;21260;-72
2021/05/14 04:33:31;;;;;;;17.80;6.53;;;11.50;99.90;;;;;;1883214;74;21231;-72
2021/05/14 04:35:59;;;;;;;18.15;6.75;;;11.50;99.90;;;;;;1882039;73;21521;-73
2021/05/14 04:38:26;;;;;;;15.55;6.10;;;11.50;99.90;;;;;;1878570;74;21062;-73
2021/05/14 04:40:54;;;;;;;19.70;6.30;;;11.50;99.90;;;;;;1883240;74;21082;-73
2021/05/14 04:43:21;;;;;;;18.10;6.00;;;11.50;99.90;;;;;;1884246;73;21097;-73
2021/05/14 04:45:49;;;;;;;18.92;6.55;;;11.50;99.90;;;;;;1885036;74;21062;-73
2021/05/14 04:48:17;;;;;;;23.52;6.80;;;11.70;99.90;;;;;;1884430;74;21074;-73
2021/05/14 04:50:44;;;;;;;21.42;6.72;;;11.70;99.90;;;;;;1880801;74;21584;-72
2021/05/14 04:53:14;;;;;;;21.77;7.22;;;11.60;99.90;;;;;;1882237;74;21018;-72
2021/05/14 04:55:42;;;;;;;21.42;6.80;;;11.60;99.90;;;;;;1883397;74;21071;-73
2021/05/14 04:58:09;;;;;;;19.37;6.45;;;11.60;99.90;;;;;;1884108;74;21041;-73
2021/05/14 05:00:37;;;;;;;20.35;6.80;;;11.60;99.90;;;;;;1880861;74;21109;-73
2021/05/14 05:03:06;;;;;;;22.48;6.85;;;11.60;99.90;;;;;;1881132;74;21232;-73
2021/05/14 05:05:35;;;;;;;20.12;6.67;;;11.60;99.90;;;;;;1880101;74;21431;-73
2021/05/14 05:08:02;;;;;;;22.42;7.40;;;11.60;99.90;;;;;;1884370;74;21077;-72
2021/05/14 05:10:30;;;;;;;22.50;7.42;;;11.60;99.90;;;;;;1881198;74;21078;-72
2021/05/14 05:12:57;;;;;;;23.90;7.70;;;11.60;99.90;;;;;;1880740;74;21089;-73
2021/05/14 05:15:25;;;;;;;22.20;7.20;;;11.70;99.90;;;;;;1885580;74;21530;-73
2021/05/14 05:17:53;;;;;;;24.45;7.72;;;11.60;99.90;;;;;;1886193;74;21096;-72
2021/05/14 05:20:21;;;;;;;20.68;7.33;;;11.60;99.90;;;;;;1880396;74;21185;-72
2021/05/14 05:22:49;;;;;;;17.85;6.75;;;11.50;99.90;;;;;;1882098;74;21144;-72
2021/05/14 05:25:17;;;;;;;18.67;7.03;;;11.60;99.90;;;;;;1884583;74;21074;-72
2021/05/14 05:27:44;;;;;;;19.23;7.30;;;11.60;99.90;;;;;;1880413;74;21527;-73
2021/05/14 05:30:12;;;;;;;24.23;7.45;;;11.70;99.90;;;;;;1882265;74;21250;-73
2021/05/14 05:32:40;;;;;;;21.95;7.20;;;11.80;99.90;;;;;;1889308;74;21488;-73
2021/05/14 05:35:07;;;;;;;18.02;7.33;;;11.90;99.90;;;;;;1878756;74;21214;-72
2021/05/14 05:37:35;;;;;;;17.02;7.50;;;11.90;99.90;;;;;;1889124;74;21066;-73
2021/05/14 05:40:04;;;;;;;21.57;7.90;;;12.00;99.90;;;;;;1882583;74;21090;-73
2021/05/14 05:42:32;;;;;;;20.90;8.13;;;12.00;99.90;;;;;;1878010;74;21241;-73
2021/05/14 05:44:59;;;;;;;17.17;7.60;;;12.10;99.90;;;;;;1887592;74;21054;-73
2021/05/14 05:47:29;;;;;;;19.40;7.40;;;12.00;99.90;;;;;;1882113;74;21054;-72
2021/05/14 05:49:56;;;;;;;24.02;7.95;;;11.90;99.90;;;;;;1881882;74;21571;-73
2021/05/14 05:52:23;;;;;;;26.77;8.45;;;12.00;99.90;;;;;;1876202;74;21155;-73
2021/05/14 05:54:51;;;;;;;27.55;7.60;;;12.20;99.90;;;;;;1873781;74;21118;-73
2021/05/14 05:57:19;;;;;;;28.15;6.92;;;12.00;99.90;;;;;;1872000;74;21441;-73
2021/05/14 05:59:46;;;;;;;21.25;7.58;;;12.00;99.90;;;;;;1880053;74;21187;-73
2021/05/14 06:02:14;;;;;;;24.05;6.87;;;12.20;99.90;;;;;;1876325;74;22218;-73
2021/05/14 06:04:41;;;;;;;15.88;5.90;;;12.10;99.90;;;;;;1875492;74;21117;-74
2021/05/14 06:07:09;;;;;;;23.60;6.92;;;12.10;99.90;;;;;;1883159;74;21093;-73
2021/05/14 06:09:36;;;;;;;20.15;7.40;;;12.20;99.90;;;;;;1885959;74;21144;-73
2021/05/14 06:12:04;;;;;;;19.62;6.58;;;12.30;99.90;;;;;;1875677;74;21117;-72
2021/05/14 06:14:31;;;;;;;22.25;6.85;;;12.30;99.90;;;;;;1876919;74;21159;-72
2021/05/14 06:16:59;;;;;;;16.02;6.40;;;12.30;99.90;;;;;;1879523;74;21595;-72
2021/05/14 06:19:34;;;;;;;27.32;6.97;;;12.30;99.90;;;;;;1882101;74;21104;-72
2021/05/14 06:21:58;;;;;;;20.37;6.55;;;12.30;99.90;;;;;;1875307;74;21125;-71
2021/05/14 06:24:26;;;;;;;20.62;7.03;;;12.20;99.90;;;;;;1881577;74;21117;-72
2021/05/14 06:26:53;;;;;;;24.67;7.92;;;12.20;99.90;;;;;;1877899;74;22127;-72
2021/05/14 06:29:22;;;;;;;20.05;7.20;;;12.30;99.90;;;;;;1878334;74;21081;-72
2021/05/14 06:31:50;;;;;;;21.23;7.37;;;12.20;99.90;;;;;;1873129;74;21148;-72
2021/05/14 06:34:18;;;;;;;26.57;9.33;;;12.30;99.90;;;;;;1886310;74;21643;-74
2021/05/14 06:36:45;;;;;;;24.75;8.75;;;12.30;99.90;;;;;;1883130;74;21058;-73
2021/05/14 06:39:13;;;;;;;24.90;9.13;;;12.20;99.90;;;;;;1881770;74;21043;-74
2021/05/14 06:41:40;;;;;;;22.65;9.63;;;12.20;99.90;;;;;;1885483;73;21133;-73
2021/05/14 06:44:08;;;;;;;17.02;8.93;;;12.30;99.90;;;;;;1889487;74;21122;-74
2021/05/14 06:46:35;;;;;;;22.90;9.98;;;12.20;99.90;;;;;;1882304;74;21089;-74
2021/05/14 06:49:06;;;;;;;31.57;11.85;;;12.30;99.90;;;;;;1880330;74;21120;-73
2021/05/14 06:51:32;;;;;;;27.52;11.75;;;12.40;99.90;;;;;;1884385;74;21081;-75
2021/05/14 06:53:59;;;;;;;31.02;11.08;;;12.30;99.90;;;;;;1882880;74;21175;-75
2021/05/14 06:56:27;;;;;;;23.32;9.98;;;12.10;99.90;;;;;;1880276;74;21082;-77
2021/05/14 06:58:55;;;;;;;23.20;10.28;;;12.20;99.90;;;;;;1884280;74;21759;-74
2021/05/14 07:01:23;;;;;;;20.32;9.80;;;12.20;99.90;;;;;;1879876;74;21699;-74
2021/05/14 07:03:51;;;;;;;29.00;11.50;;;12.30;99.90;;;;;;1877534;74;21122;-75
2021/05/14 07:06:19;;;;;;;27.65;10.48;;;12.40;99.90;;;;;;1885436;74;21179;-74
2021/05/14 07:08:48;;;;;;;26.02;10.48;;;12.20;99.90;;;;;;1888778;74;21159;-76
2021/05/14 07:11:16;;;;;;;28.30;10.78;;;12.20;99.90;;;;;;1880126;73;21183;-76
2021/05/14 07:13:43;;;;;;;25.45;10.50;;;12.20;99.90;;;;;;1880693;74;21185;-76
2021/05/14 07:16:11;;;;;;;25.00;11.65;;;12.20;99.90;;;;;;1883204;74;21217;-76
2021/05/14 07:18:38;;;;;;;27.58;11.75;;;12.20;99.90;;;;;;1885279;74;21152;-75
2021/05/14 07:21:06;;;;;;;24.65;11.80;;;12.40;99.90;;;;;;1885371;74;21147;-76
2021/05/14 07:23:35;;;;;;;29.52;10.85;;;12.50;99.90;;;;;;1883267;74;21100;-76
2021/05/14 07:26:02;;;;;;;28.12;10.72;;;12.50;99.90;;;;;;1878497;74;21151;-76
2021/05/14 07:28:30;;;;;;;32.85;14.05;;;12.50;99.90;;;;;;1885422;74;21262;-76
2021/05/14 07:30:57;;;;;;;28.77;13.83;;;12.40;99.90;;;;;;1881600;73;21143;-76
2021/05/14 07:33:25;;;;;;;32.53;12.88;;;12.40;99.90;;;;;;1878366;74;21123;-75
2021/05/14 07:35:52;;;;;;;27.00;11.95;;;12.50;99.90;;;;;;1884409;74;21218;-76
2021/05/14 07:38:20;;;;;;;23.80;11.05;;;12.60;99.90;;;;;;1881293;74;21112;-76
2021/05/14 07:40:48;;;;;;;25.85;10.53;;;12.50;99.90;;;;;;1878190;74;21151;-75
2021/05/14 07:43:15;;;;;;;31.35;11.90;;;12.50;99.90;;;;;;1875592;74;21458;-74
2021/05/14 07:45:42;;;;;;;22.85;11.48;;;12.60;99.90;;;;;;1876227;74;21206;-74
2021/05/14 07:48:20;;;;;;;27.13;11.38;;;12.50;99.90;;;;;;1873305;74;21125;-73
2021/05/14 07:50:39;;;;;;;23.20;12.40;;;12.40;99.90;;;;;;1834204;76;21269;-73
2021/05/14 07:53:07;;;;;;;25.40;12.25;;;12.40;99.90;;;;;;1821537;77;21515;-72
2021/05/14 07:55:34;;;;;;;23.22;11.40;;;12.40;99.90;;;;;;1819171;77;21088;-72
2021/05/14 07:58:02;;;;;;;28.07;11.65;;;12.50;99.90;;;;;;1824119;77;21251;-71
2021/05/14 08:00:29;;;;;;;30.40;11.73;;;12.50;99.90;;;;;;1818125;77;21185;-75
2021/05/14 08:02:57;;;;;;;24.00;11.10;;;12.40;99.90;;;;;;1827543;77;21109;-73
2021/05/14 08:05:24;;;;;;;29.25;10.93;;;12.20;99.90;;;;;;1826757;77;21195;-72
2021/05/14 08:08:09;;;;;;;29.42;9.10;;;12.20;99.90;;;;;;1822787;77;21583;-72
2021/05/14 08:10:37;;;;;;;22.70;9.80;;;12.20;99.90;;;;;;1825592;77;21168;-71
2021/05/14 08:13:05;;;;;;;23.55;7.95;;;12.20;99.90;;;;;;1824172;77;21136;-72
2021/05/14 08:15:33;;;;;;;22.02;8.60;;;12.50;99.90;;;;;;1821744;77;21619;-72
2021/05/14 08:18:01;;;;;;;22.48;7.67;;;12.60;99.90;;;;;;1824397;77;21090;-72
2021/05/14 08:20:28;;;;;;;26.40;8.70;;;12.60;99.90;;;;;;1835724;76;21616;-71
2021/05/14 08:22:56;;;;;;;22.30;7.67;;;12.60;99.90;;;;;;1823692;77;21096;-72
2021/05/14 08:25:23;;;;;;;29.18;8.48;;;12.60;99.90;;;;;;1823043;77;21098;-72
2021/05/14 08:27:51;;;;;;;27.73;8.60;;;12.70;99.90;;;;;;1823347;77;21480;-72
2021/05/14 08:30:19;;;;;;;21.12;7.50;;;12.70;99.90;;;;;;1819753;76;21832;-72
2021/05/14 08:32:46;;;;;;;26.50;8.95;;;12.60;99.90;;;;;;1821301;77;21109;-73
2021/05/14 08:35:14;;;;;;;25.50;9.05;;;12.70;99.90;;;;;;1851612;76;21092;-73
2021/05/14 08:37:41;;;;;;;24.60;8.80;;;12.70;99.90;;;;;;1840026;76;21113;-73
2021/05/14 08:40:09;;;;;;;21.52;8.00;;;12.80;99.90;;;;;;1826980;77;21086;-73
2021/05/14 08:42:58;;;;;;;28.77;8.48;;;12.90;99.90;;;;;;1820885;77;21062;-73
2021/05/14 08:45:25;;;;;;;21.52;5.95;;;12.90;99.90;;;;;;1882716;74;21092;-73
2021/05/14 08:47:55;;;;;;;23.35;6.62;;;13.00;99.90;;;;;;1877216;74;21143;-73
2021/05/14 08:50:23;;;;;;;27.55;8.03;;;12.90;99.90;;;;;;1815651;76;21569;-73
2021/05/14 08:52:50;;;;;;;25.23;7.08;;;12.90;99.90;;;;;;1910110;73;21161;-73
2021/05/14 08:55:22;;;;;;;18.42;5.95;;;12.90;99.90;;;;;;1913751;73;22453;-73
2021/05/14 08:57:47;;;;;;;16.20;5.33;;;12.90;99.90;;;;;;1911880;73;21031;-72
2021/05/14 09:00:15;;;;;;;19.07;5.70;;;12.90;99.90;;;;;;1909235;73;21108;-73
2021/05/14 09:02:43;;;;;;;26.90;5.70;;;12.90;99.90;;;;;;1912518;73;21108;-73
2021/05/14 09:05:34;;;;;;;21.25;5.45;;;13.00;99.90;;;;;;1914983;73;21226;-70
2021/05/14 09:08:03;;;;;;;19.32;5.05;;;13.10;99.90;;;;;;1871009;75;21171;-72
2021/05/14 09:10:32;;;;;;;17.40;4.78;;;13.10;99.90;;;;;;1910910;73;21133;-71
2021/05/14 09:13:01;;;;;;;14.18;4.28;;;13.00;99.90;;;;;;1912441;73;21145;-71
2021/05/14 09:15:35;;;;;;;15.05;4.20;;;13.10;99.90;;;;;;1907176;73;21177;-71
2021/05/14 09:18:20;;;;;;;14.45;4.62;;;13.20;99.90;;;;;;1911620;73;21124;-72
2021/05/14 09:21:01;;;;;;;18.92;4.85;;;13.30;99.90;;;;;;1907784;73;21117;-73
2021/05/14 09:23:34;;;;;;;13.53;4.20;;;13.30;99.90;;;;;;1839883;76;21198;-70
2021/05/14 09:26:15;;;;;;;16.52;4.78;;;13.60;99.90;;;;;;1911525;73;21139;-72
2021/05/14 09:28:47;;;;;;;16.57;4.97;;;13.60;99.90;;;;;;1908052;73;21870;-73
2021/05/14 09:31:29;;;;;;;18.35;4.67;;;13.60;99.90;;;;;;1833529;76;21180;-73
2021/05/14 09:34:01;;;;;;;14.85;4.80;;;13.60;99.90;;;;;;1910276;73;21112;-72
2021/05/14 09:36:31;;;;;;;20.80;4.58;;;13.60;99.90;;;;;;1869469;75;21174;-73
2021/05/14 09:39:03;;;;;;;17.42;5.42;;;13.50;99.90;;;;;;1912749;73;21119;-77
2021/05/14 09:41:42;;;;;;;18.48;5.12;;;13.50;99.90;;;;;;1913999;73;21233;-74
2021/05/14 09:44:19;;;;;;;17.15;4.67;;;13.60;99.90;;;;;;1867207;75;21683;-73
2021/05/14 09:46:50;;;;;;;17.92;5.10;;;13.70;99.90;;;;;;1915908;74;21081;-74
2021/05/14 09:49:21;;;;;;;18.02;4.95;;;13.80;99.90;;;;;;1912559;73;22180;-73
2021/05/14 09:51:58;;;;;;;16.05;4.92;;;13.70;99.90;;;;;;1912471;73;21100;-74
2021/05/14 09:54:28;;;;;;;16.37;5.17;;;13.80;99.90;;;;;;1866718;75;21058;-73
2021/05/14 10:00:03;;;;;;;16.93;5.27;;;13.80;99.90;;;;;;1845204;76;21069;-74
2021/05/14 10:02:35;;;;;;;14.73;5.08;;;13.70;99.90;;;;;;1874306;76;21083;-74
2021/05/14 10:05:05;;;;;;;15.75;5.45;;;13.70;99.90;;;;;;1875071;75;21100;-72
2021/05/14 10:07:36;;;;;;;22.00;5.60;;;13.70;99.90;;;;;;1874088;75;21163;-73
2021/05/14 10:10:09;;;;;;;19.05;4.62;;;13.80;99.90;;;;;;1875467;75;21130;-74
2021/05/14 10:12:37;;;;;;;14.93;5.15;;;14.00;99.90;;;;;;1869647;75;21057;-74
2021/05/14 10:15:09;;;;;;;15.45;4.67;;;13.90;99.90;;;;;;1863761;76;21272;-73
2021/05/14 10:17:40;;;;;;;20.02;4.78;;;13.90;99.90;;;;;;1915433;74;21057;-72
2021/05/14 10:20:19;;;;;;;17.48;4.70;;;14.00;99.90;;;;;;1865518;75;21665;-74
2021/05/14 10:22:50;;;;;;;18.12;5.60;;;14.10;99.90;;;;;;1914725;74;21138;-73
2021/05/14 10:25:44;;;;;;;14.75;5.05;;;14.10;99.90;;;;;;1873999;75;21164;-74
2021/05/14 10:28:21;;;;;;;24.80;9.08;;;14.10;99.90;;;;;;1912645;74;22569;-74
2021/05/14 10:31:08;;;;;;;14.13;5.08;;;14.10;99.90;;;;;;1869638;76;21117;-74
2021/05/14 10:33:50;;;;;;;13.13;4.95;;;14.10;99.90;;;;;;1906641;74;21085;-74
2021/05/14 10:36:32;;;;;;;12.33;4.87;;;14.10;99.90;;;;;;1868272;75;21143;-74
2021/05/14 10:39:16;;;;;;;18.00;5.53;;;14.10;99.90;;;;;;1913951;74;21127;-74
2021/05/14 10:41:50;;;;;;;16.20;5.37;;;14.20;99.90;;;;;;1870404;76;21590;-73
2021/05/14 10:44:17;;;;;;;13.32;5.95;;;14.30;99.90;;;;;;1912671;74;21672;-73
2021/05/14 10:46:45;;;;;;;13.60;5.90;;;14.40;99.90;;;;;;1914946;74;21549;-76
2021/05/14 10:49:15;;;;;;;13.00;4.78;;;14.40;99.90;;;;;;1911666;73;21080;-73
2021/05/14 10:51:52;;;;;;;13.15;5.20;;;14.40;99.90;;;;;;1916122;73;21132;-74
2021/05/14 10:54:42;;;;;;;13.25;5.20;;;14.40;99.90;;;;;;1865997;75;21595;-73
2021/05/14 10:57:12;;;;;;;15.10;5.50;;;14.60;99.90;;;;;;1865017;75;21136;-73
2021/05/14 10:59:41;;;;;;;11.35;5.62;;;14.60;99.90;;;;;;1910714;74;21174;-75
2021/05/14 11:02:30;;;;;;;20.17;5.67;;;14.60;99.90;;;;;;1915439;73;21817;-73
2021/05/14 11:05:00;;;;;;;15.63;5.83;;;14.50;99.90;;;;;;1914716;73;21177;-72
2021/05/14 11:07:41;;;;;;;17.20;6.22;;;14.50;99.90;;;;;;1916402;73;21088;-71
2021/05/14 11:10:17;;;;;;;15.10;6.33;;;14.70;99.90;;;;;;1913871;74;21013;-73
2021/05/14 11:12:45;;;;;;;18.00;7.03;;;14.90;99.90;;;;;;1910342;73;21112;-74
2021/05/14 11:15:30;;;;;;;17.48;6.75;;;14.80;99.90;;;;;;1915540;73;21123;-74
2021/05/14 11:18:20;;;;;;;16.70;6.67;;;14.70;99.90;;;;;;1913475;73;21124;-72
2021/05/14 11:20:49;;;;;;;16.85;6.70;;;14.70;99.90;;;;;;1915319;73;21233;-71
2021/05/14 11:23:38;;;;;;;15.20;6.30;;;14.70;99.90;;;;;;1914672;73;21072;-72
2021/05/14 11:26:08;;;;;;;18.87;6.70;;;14.80;99.90;;;;;;1914087;73;21170;-73
2021/05/14 11:28:47;;;;;;;14.05;6.30;;;14.80;99.90;;;;;;1908665;74;21041;-72
2021/05/14 11:31:22;;;;;;;21.00;7.22;;;14.90;99.90;;;;;;1917805;73;21667;-73
2021/05/14 11:33:53;;;;;;;14.78;5.75;;;14.80;99.90;;;;;;1914990;73;21558;-72
2021/05/14 11:36:21;;;;;;;14.18;6.00;;;14.80;99.90;;;;;;1913659;74;21545;-71
2021/05/14 11:38:56;;;;;;;16.40;6.00;;;14.90;99.90;;;;;;1918295;73;21074;-71
2021/05/14 11:41:32;;;;;;;18.92;5.40;;;14.90;99.90;;;;;;1911332;73;21205;-71
2021/05/14 11:44:02;;;;;;;15.72;5.58;;;14.90;99.90;;;;;;1916399;73;21034;-71
2021/05/14 11:46:32;;;;;;;11.45;5.55;;;15.00;99.90;;;;;;1912520;73;21147;-73
2021/05/14 11:49:07;;;;;;;16.57;6.17;;;15.00;99.90;;;;;;1914149;73;21038;-72
2021/05/14 11:51:35;;;;;;;12.23;5.35;;;15.10;99.90;;;;;;1913443;73;21574;-72
2021/05/14 11:54:16;;;;;;;13.30;5.12;;;15.20;99.90;;;;;;1915356;74;21092;-71
2021/05/14 11:56:43;;;;;;;17.02;6.03;;;15.40;99.90;;;;;;1915169;73;21097;-74
2021/05/14 11:59:22;;;;;;;16.65;5.60;;;15.20;99.90;;;;;;1865988;75;21077;-73
2021/05/14 12:01:49;;;;;;;12.18;4.72;;;15.40;99.90;;;;;;1914648;73;21060;-73
2021/05/14 12:04:17;;;;;;;13.28;5.33;;;15.40;99.90;;;;;;1874294;75;21093;-73
2021/05/14 12:06:51;;;;;;;12.68;5.08;;;15.50;99.90;;;;;;1869792;75;21170;-72
2021/05/14 12:09:19;;;;;;;13.05;5.40;;;15.50;99.90;;;;;;1913597;73;21046;-70
2021/05/14 12:11:47;;;;;;;10.88;4.62;;;15.60;99.90;;;;;;1875384;75;21622;-71
2021/05/14 12:14:24;;;;;;;14.83;4.92;;;15.80;99.90;;;;;;1915818;73;21534;-71
2021/05/14 12:16:53;;;;;;;15.48;5.40;;;16.00;99.90;;;;;;1875649;75;21026;-72
2021/05/14 12:19:20;;;;;;;15.53;6.10;;;15.90;99.90;;;;;;1923341;73;21021;-71
2021/05/14 12:21:47;;;;;;;16.23;5.85;;;16.00;99.90;;;;;;1879548;75;21078;-71
2021/05/14 12:24:18;;;;;;;12.13;5.22;;;16.00;99.90;;;;;;1879167;75;22182;-71
2021/05/14 12:26:47;;;;;;;19.75;5.60;;;15.90;99.90;;;;;;1919429;73;21185;-72
2021/05/14 12:29:30;;;;;;;14.28;5.65;;;16.00;99.90;;;;;;1868489;75;21141;-72
2021/05/14 12:32:05;;;;;;;21.52;5.72;;;15.80;99.90;;;;;;1916437;73;21402;-72
2021/05/14 12:34:33;;;;;;;17.12;5.58;;;15.80;99.90;;;;;;1872243;75;21038;-72
2021/05/14 12:37:01;;;;;;;11.85;5.17;;;15.90;99.90;;;;;;1917020;73;21167;-70
2021/05/14 12:39:29;;;;;;;14.43;5.10;;;15.80;99.90;;;;;;1869907;75;21010;-72
2021/05/14 12:41:59;;;;;;;18.95;5.00;;;15.90;99.90;;;;;;1873539;75;21184;-72
2021/05/14 12:44:39;;;;;;;14.65;4.58;;;15.90;99.90;;;;;;1914464;73;21108;-70
2021/05/14 12:47:06;;;;;;;16.40;5.12;;;16.00;99.90;;;;;;1915127;73;21107;-72
2021/05/14 12:49:36;;;;;;;13.40;5.42;;;15.90;99.90;;;;;;1908731;73;21085;-72
2021/05/14 12:52:10;;;;;;;15.28;5.47;;;15.90;99.90;;;;;;1870626;74;21655;-72